Tiempo atmosférico en la estación meteorológica de La Oliva, Puerto de Corralejo, Las Palmas (6 m.)



Fecha
DESCASC
Temp. máxima en grados centígrados (hora)
DESCASC
Temp. mínima en grados centígrados (hora)
DESCASC
Temp. media en grados centígrados
DESCASC
Racha de viento máxima en m/sg (hora)
DESCASC
Velocidad máxima media en intervalos de 10 minutos(hora)
DESCASC
Precipitaciones diarias en mm
DESCASC
Precipitaciones de 00:00 a 06:00 en mm
DESCASC
Precipitaciones de 06:00 a 12:00 en mm
DESCASC
Precipitaciones de 12:00 a 18:00 en mm
DESCASC
Precipitaciones de 18:00 a 24:00 en mm
DESCASC
29-10-2020 25.2 (12:00) 20.2 (03:50) 22.7 10.83 (12:40) 7.5 (08:30) 0 0 0 0 0
28-10-2020 22.9 (13:20) 20.2 (06:20) 21.6 11.94 (19:00) 8.33 (14:30) 0 0 0 0 0
27-10-2020 24 (12:50) 19.9 (00:00) 21.9 12.22 (15:00) 8.33 (15:10) 0 0 0 0 0
26-10-2020 23.4 (12:50) 20.2 (00:00) 21.8 11.11 (15:00) 7.78 (08:10) 0 0 0 0 0
25-10-2020 23.4 (12:30) 20 (00:00) 21.7 9.72 (01:00) 7.78 (19:20) 0 0 0 0 0
24-10-2020 23.5 (15:30) 20.3 (00:00) 21.9 14.17 (15:00) 9.17 (14:40) 0 0 0 0 0
23-10-2020 23.5 (12:20) 20.3 (00:00) 21.9 11.67 (18:00) 8.61 (18:00) 0 0 0 0 0
22-10-2020 23.5 (13:00) 19.1 (00:00) 21.3 10.28 (03:00) 6.39 (13:30) 0.4 0.4 0 0 0
21-10-2020 25.2 (14:30) 21.2 (00:00) 23.2 10.28 (16:00) 6.11 (16:00) 0.6 0 0 0.6 0
20-10-2020 29.6 (11:10) 20.6 (00:00) 25.1 20.83 (12:00) 15 (11:40) 0 0 0 0 0
19-10-2020 23.7 (17:20) 18.8 (00:00) 21.3 9.17 (13:00) 6.39 (12:30) 0 0 0 0 0
18-10-2020 21.9 (12:20) 18.6 (00:00) 20.3 9.72 (15:00) 6.67 (14:40) 0 0 0 0 0
17-10-2020 23.9 (16:20) 20.6 (00:00) 22.3 6.67 (07:50) 5.28 (07:50) 0 0 0 0 0
16-10-2020 24.2 (14:50) 20.7 (00:00) 22.5 8.89 (21:00) 6.67 (20:50) 0 0 0 0 0
15-10-2020 23.6 (16:00) 21 (00:00) 22.3 10.83 (13:00) 7.5 (07:20) 0 0 0 0 0
14-10-2020 25 (14:00) 20.9 (00:00) 22.9 12.22 (21:00) 7.5 (21:00) 0 0 0 0 0
13-10-2020 25.2 (14:20) 22.3 (00:00) 23.8 8.89 (07:00) 6.67 (08:20) 0 0 0 0 0
12-10-2020 25.4 (22:40) 21.8 (00:00) 23.6 11.11 (22:00) 8.06 (22:20) 0 0 0 0 0
11-10-2020 25.1 (10:50) 21.1 (00:00) 23.1 10.28 (16:00) 7.78 (14:50) 0 0 0 0 0
10-10-2020 26.6 (11:50) 21.5 (00:00) 24.1 10.28 (17:00) 6.11 (13:10) 0 0 0 0 0
09-10-2020 24.9 (11:10) 21.7 (00:00) 23.3 12.78 (19:00) 9.44 (17:50) 0 0 0 0 0
08-10-2020 25.6 (14:00) 20.8 (00:00) 23.2 11.11 (19:10) 8.33 (19:10) 0 0 0 0 0
07-10-2020 25.2 (16:00) 21.6 (00:00) 23.4 8.61 (07:00) 6.39 (01:20) 0 0 0 0 0
06-10-2020 23.4 (16:20) 21.4 (00:00) 22.4 10 (19:00) 7.5 (19:50) 0 0 0 0 0
05-10-2020 24.1 (13:40) 21.4 (00:00) 22.8 11.39 (18:00) 8.89 (17:30) 0 0 0 0 0
04-10-2020 25.1 (12:50) 20.8 (00:00) 22.9 12.22 (16:00) 10 (16:10) 0.4 0.4 0 0 0
03-10-2020 24.1 (14:20) 21.1 (00:00) 22.6 15 (02:00) 9.72 (13:50) 0.2 0 0.2 0 0
02-10-2020 24.2 (14:40) 22.1 (00:00) 23.2 14.72 (17:00) 10 (22:00) 0 0 0 0 0
01-10-2020 24.9 (12:50) 21.7 (00:00) 23.3 15.28 (18:00) 9.17 (18:10) 0 0 0 0 0

Gráficas

Temp. máximas Temp. mínimas Temp. medias Precipitaciones Rachas de viento máximas Velocidades máximas media en intervalos de 10 minutos

Datos horarios

Fecha y hora oficial Temperatura (ºC) Velocidad del viento (km/h) Dirección del viento Racha (km/h) Dirección de racha Precipitación (mm) Presión (hPa) Tendencia (hPa) Humedad (%)
2020-10-30 23:00:00 23.9 41 Nordeste 55 Nordeste 0 -- -- 44
2020-10-30 22:00:00 25.4 38 Nordeste 63 Nordeste 0 -- -- 28
2020-10-30 21:00:00 25.3 21 Este 39 Nordeste 0 -- -- 26
2020-10-30 20:00:00 24.8 14 Nordeste 23 Nordeste 0 -- -- 32
2020-10-30 19:00:00 25.3 6 Sudeste 11 Este 0 -- -- 22
2020-10-30 18:00:00 24.3 4 Este 16 Nordeste 0 -- -- 40
2020-10-30 17:00:00 24.8 10 Nordeste 20 Nordeste 0 -- -- 38
2020-10-30 16:00:00 23.8 16 Nordeste 21 Nordeste 0 -- -- 53
2020-10-30 15:00:00 24.5 13 Nordeste 22 Este 0 -- -- 55
2020-10-30 14:00:00 25.9 14 Este 28 Este 0 -- -- 38
2020-10-30 13:00:00 24.9 15 Este 20 Este 0 -- -- 41
2020-10-30 12:00:00 24.4 17 Este 23 Este 0 -- -- 58
2020-10-30 11:00:00 24.3 18 Este 24 Este 0 -- -- 65
2020-10-30 10:00:00 23.8 18 Este 27 Este 0 -- -- 72
2020-10-30 09:00:00 23.4 19 Este 29 Nordeste 0 -- -- 79
2020-10-30 08:00:00 22.4 21 Este 29 Este 0 -- -- 83
2020-10-30 07:00:00 21.7 14 Este 21 Sudeste 0 -- -- 87
2020-10-30 06:00:00 21 11 Sudeste 17 Este 0 -- -- 90
2020-10-30 05:00:00 20.8 7 Norte 18 Norte 0 -- -- 97
2020-10-30 04:00:00 21 13 Norte 22 Norte 0 -- -- 97
2020-10-30 03:00:00 21.1 15 Norte 24 Norte 0 -- -- 96
2020-10-30 02:00:00 21.1 17 Noroeste 23 Noroeste 0 -- -- 95
2020-10-30 01:00:00 21.1 15 Noroeste 21 Noroeste 0 -- -- 94
2020-10-30 00:00:00 21.2 13 Norte 20 Norte 0 -- -- 93
2020-10-29 23:00:00 21.2 10 Norte 18 Norte 0 -- -- 92
2020-10-29 22:00:00 21.4 15 Norte 22 Norte 0 -- -- 92
2020-10-29 21:00:00 21.4 17 Norte 27 Norte 0 -- -- 91
2020-10-29 20:00:00 21.4 23 Norte 34 Norte 0 -- -- 90
2020-10-29 19:00:00 21.3 24 Norte 35 Norte 0 -- -- 90
2020-10-29 18:00:00 21.7 26 Norte 35 Norte 0 -- -- 87
2020-10-29 17:00:00 22.8 18 Norte 25 Norte 0 -- -- 77
2020-10-29 16:00:00 23.2 6 Norte 24 Norte 0 -- -- 72
2020-10-29 15:00:00 23.6 8 Nordeste 15 Norte 0 -- -- 72
2020-10-29 14:00:00 23.3 11 Norte 22 Nordeste 0 -- -- 74
2020-10-29 13:00:00 23.3 19 Norte 39 Noroeste 0 -- -- 75
2020-10-29 12:00:00 25.2 3 Sudeste 17 Norte 0 -- -- 64
2020-10-29 11:00:00 22.9 20 Norte 34 Norte 0 -- -- 77
2020-10-29 10:00:00 22.3 21 Norte 31 Norte 0 -- -- 78
2020-10-29 09:00:00 21.5 25 Norte 33 Norte 0 -- -- 81
2020-10-29 08:00:00 20.8 25 Norte 35 Norte 0 -- -- 83
2020-10-29 07:00:00 20.5 21 Norte 28 Norte 0 -- -- 82
2020-10-29 06:00:00 20.6 22 Norte 30 Norte 0 -- -- 78
2020-10-29 05:00:00 20.4 15 Norte 21 Norte 0 -- -- 76
2020-10-29 04:00:00 20.5 12 Norte 22 Norte 0 -- -- 74
2020-10-29 03:00:00 20.3 5 Norte 19 Norte 0 -- -- 73
2020-10-29 02:00:00 20.7 13 Norte 20 Norte 0 -- -- 73
2020-10-29 01:00:00 20.6 12 Norte 19 Norte 0 -- -- 72
2020-10-29 00:00:00 20.6 15 Nordeste 23 Norte 0 -- -- 70
2020-10-28 23:00:00 20.7 19 Norte 27 Norte 0 -- -- 70
2020-10-28 22:00:00 20.9 21 Nordeste 30 Nordeste 0 -- -- 73
2020-10-28 21:00:00 21 21 Nordeste 29 Nordeste 0 -- -- 73
2020-10-28 20:00:00 21.1 23 Nordeste 36 Nordeste 0 -- -- 71
2020-10-28 19:00:00 21.2 26 Norte 43 Norte 0 -- -- 68
2020-10-28 18:00:00 21.4 26 Norte 36 Norte 0 -- -- 63
2020-10-28 17:00:00 21.7 27 Norte 37 Norte 0 -- -- 62
2020-10-28 16:00:00 22 28 Norte 37 Norte 0 -- -- 64
2020-10-28 15:00:00 22 25 Norte 39 Noroeste 0 -- -- 65
2020-10-28 14:00:00 22.3 26 Norte 39 Norte 0 -- -- 59
2020-10-28 13:00:00 22.6 24 Norte 33 Norte 0 -- -- 53
2020-10-28 12:00:00 22.7 20 Nordeste 30 Nordeste 0 -- -- 56
2020-10-28 11:00:00 22.5 22 Norte 34 Norte 0 -- -- 55
2020-10-28 10:00:00 22.1 22 Norte 30 Norte 0 -- -- 59
2020-10-28 09:00:00 21.4 22 Nordeste 28 Nordeste 0 -- -- 65
2020-10-28 08:00:00 20.5 16 Norte 25 Norte 0 -- -- 71
2020-10-28 07:00:00 20.5 13 Norte 31 Norte 0 -- -- 73
2020-10-28 06:00:00 20.5 27 Norte 35 Norte 0 -- -- 72
2020-10-28 05:00:00 20.7 18 Norte 26 Norte 0 -- -- 68
2020-10-28 04:00:00 20.8 15 Norte 31 Norte 0 -- -- 68
2020-10-28 03:00:00 20.6 25 Norte 33 Norte 0 -- -- 72
2020-10-28 02:00:00 20.8 19 Norte 28 Norte 0 -- -- 68
2020-10-28 01:00:00 20.9 22 Norte 35 Norte 0 -- -- 74
2020-10-28 00:00:00 20.8 18 Nordeste 22 Norte 0 -- -- 76
2020-10-27 23:00:00 20.3 14 Norte 37 Nordeste 0 -- -- 77
2020-10-27 22:00:00 21 21 Norte 33 Norte 0 -- -- 70
2020-10-27 21:00:00 20.9 27 Norte 36 Norte 0 -- -- 68
2020-10-27 20:00:00 21.2 23 Norte 35 Norte 0 -- -- 67
2020-10-27 19:00:00 21.2 28 Norte 38 Norte 0 -- -- 65
2020-10-27 18:00:00 21.6 30 Norte 40 Norte 0 -- -- 60
2020-10-27 17:00:00 22.3 27 Norte 37 Norte 0 -- -- 62
2020-10-27 16:00:00 22.7 27 Norte 39 Noroeste 0 -- -- 56
2020-10-27 15:00:00 22.2 28 Norte 44 Norte 0 -- -- 64
2020-10-27 14:00:00 22.3 18 Nordeste 33 Norte 0 -- -- 63
2020-10-27 13:00:00 23.4 10 Norte 21 Norte 0 -- -- 58
2020-10-27 12:00:00 22.8 15 Norte 33 Norte 0 -- -- 62
2020-10-27 11:00:00 22.6 19 Norte 26 Norte 0 -- -- 59
2020-10-27 10:00:00 21.9 13 Nordeste 21 Nordeste 0 -- -- 69
2020-10-27 09:00:00 21.2 17 Nordeste 24 Norte 0 -- -- 74
2020-10-27 08:00:00 21 21 Nordeste 27 Nordeste 0 -- -- 77
2020-10-27 07:00:00 20.6 17 Norte 23 Norte 0 -- -- 80
2020-10-27 06:00:00 20.4 14 Norte 21 Norte 0 -- -- 83
2020-10-27 05:00:00 20.6 15 Norte 21 Norte 0 -- -- 82
2020-10-27 04:00:00 20.6 17 Norte 21 Norte 0 -- -- 81
2020-10-27 03:00:00 20.7 15 Norte 22 Norte 0 -- -- 82
2020-10-27 02:00:00 20.9 16 Norte 21 Noroeste 0 -- -- 83
2020-10-27 01:00:00 21.3 16 Norte 23 Norte 0 -- -- 82
2020-10-27 00:00:00 21.2 15 Norte 24 Nordeste 0 -- -- 82
2020-10-26 23:00:00 21.4 19 Nordeste 29 Nordeste 0 -- -- 82
2020-10-26 22:00:00 21.4 22 Nordeste 33 Nordeste 0 -- -- 84
2020-10-26 21:00:00 21.6 24 Norte 34 Norte 0 -- -- 85
2020-10-26 20:00:00 21.8 18 Norte 30 Norte 0 -- -- 79
2020-10-26 19:00:00 22 25 Norte 33 Norte 0 -- -- 78
2020-10-26 18:00:00 22.2 25 Norte 37 Norte 0 -- -- 74
2020-10-26 17:00:00 22.6 16 Norte 27 Nordeste 0 -- -- 70
2020-10-26 16:00:00 22.6 16 Nordeste 32 Nordeste 0 -- -- 64
2020-10-26 15:00:00 22.8 24 Nordeste 40 Nordeste 0 -- -- 64
2020-10-26 14:00:00 23.4 23 Nordeste 37 Este 0 -- -- 64
2020-10-26 13:00:00 23.2 24 Nordeste 31 Este 0 -- -- 64
2020-10-26 12:00:00 23.2 24 Nordeste 35 Este 0 -- -- 62
2020-10-26 11:00:00 23.1 20 Nordeste 29 Nordeste 0 -- -- 62
2020-10-26 10:00:00 22 22 Nordeste 31 Nordeste 0 -- -- 64
2020-10-26 09:00:00 21.4 21 Nordeste 33 Norte 0 -- -- 67
2020-10-26 08:00:00 20.8 25 Norte 33 Norte 0 -- -- 70
2020-10-26 07:00:00 20.4 20 Norte 28 Norte 0 -- -- 70
2020-10-26 06:00:00 20.4 18 Norte 27 Nordeste 0 -- -- 71
2020-10-26 05:00:00 20.3 19 Norte 26 Norte 0 -- -- 71
2020-10-26 04:00:00 20.4 19 Nordeste 25 Norte 0 -- -- 70
2020-10-26 03:00:00 20.4 18 Nordeste 23 Nordeste 0 -- -- 69
2020-10-26 02:00:00 20.4 18 Nordeste 23 Nordeste 0 -- -- 69
2020-10-26 01:00:00 20.5 21 Norte 30 Norte 0 -- -- 69
2020-10-26 00:00:00 20.6 19 Nordeste 32 Nordeste 0 -- -- 68
2020-10-25 23:00:00 20.7 19 Nordeste 27 Norte 0 -- -- 69
2020-10-25 22:00:00 20.7 21 Nordeste 32 Norte 0 -- -- 68
2020-10-25 21:00:00 20.8 24 Norte 34 Nordeste 0 -- -- 69
2020-10-25 20:00:00 21.1 25 Nordeste 34 Nordeste 0 -- -- 67
2020-10-25 19:00:00 21.5 27 Nordeste 31 Nordeste 0 -- -- 66
2020-10-25 18:00:00 22 23 Nordeste 32 Nordeste 0 -- -- 63
2020-10-25 17:00:00 22 18 Nordeste 31 Nordeste 0 -- -- 64
2020-10-25 16:00:00 22.5 20 Nordeste 30 Nordeste 0 -- -- 61
2020-10-25 15:00:00 22.5 20 Nordeste 31 Nordeste 0 -- -- 64
2020-10-25 14:00:00 22.6 21 Nordeste 35 Nordeste 0 -- -- 61
2020-10-25 13:00:00 22.9 18 Nordeste 26 Nordeste 0 -- -- 63
2020-10-25 12:00:00 23 14 Nordeste 18 Nordeste 0 -- -- 60
2020-10-25 11:00:00 22.5 15 Nordeste 19 Nordeste 0 -- -- 56
2020-10-25 10:00:00 22.8 6 Norte 15 Norte 0 -- -- 55
2020-10-25 09:00:00 21.5 10 Nordeste 17 Nordeste 0 -- -- 61
2020-10-25 08:00:00 20.4 14 Nordeste 25 Norte 0 -- -- 66
2020-10-25 07:00:00 20.2 16 Norte 25 Norte 0 -- -- 69
2020-10-25 06:00:00 20.1 17 Norte 24 Nordeste 0 -- -- 70
2020-10-25 05:00:00 20.4 21 Nordeste 30 Nordeste 0 -- -- 68
2020-10-25 04:00:00 20.2 16 Norte 25 Norte 0 -- -- 69
2020-10-25 03:00:00 20.5 22 Norte 32 Nordeste 0 -- -- 68
2020-10-25 02:00:00 20.5 19 Norte 33 Nordeste 0 -- -- 67
2020-10-25 01:00:00 20.8 20 Nordeste 31 Nordeste 0 -- -- 66
2020-10-25 00:00:00 21.1 23 Nordeste 29 Norte 0 -- -- 70
2020-10-24 23:00:00 21.2 22 Norte 31 Nordeste 0 -- -- 68
2020-10-24 22:00:00 21.3 24 Nordeste 34 Nordeste 0 -- -- 70
2020-10-24 21:00:00 21.4 23 Nordeste 27 Nordeste 0 -- -- 66
2020-10-24 20:00:00 21.7 22 Nordeste 32 Nordeste 0 -- -- 69
2020-10-24 19:00:00 21.9 24 Nordeste 36 Este 0 -- -- 68
2020-10-24 18:00:00 22.3 28 Nordeste 39 Nordeste 0 -- -- 66
2020-10-24 17:00:00 23.1 28 Este 44 Este 0 -- -- 59
2020-10-24 16:00:00 23.3 29 Este 39 Este 0 -- -- 46
2020-10-24 15:00:00 23 33 Este 51 Este 0 -- -- 47
2020-10-24 14:00:00 22.9 30 Este 41 Este 0 -- -- 62
2020-10-24 13:00:00 22.8 31 Este 48 Este 0 -- -- 64
2020-10-24 12:00:00 23.1 27 Nordeste 36 Nordeste 0 -- -- 59
2020-10-24 11:00:00 21.9 26 Nordeste 43 Nordeste 0 -- -- 59
2020-10-24 10:00:00 21.2 21 Norte 28 Norte 0 -- -- 65
2020-10-24 09:00:00 20.6 19 Nordeste 25 Nordeste 0 -- -- 69
2020-10-24 08:00:00 20.4 20 Nordeste 28 Norte 0 -- -- 69
2020-10-24 07:00:00 20.3 20 Nordeste 29 Norte 0 -- -- 69
2020-10-24 06:00:00 20.4 21 Nordeste 29 Nordeste 0 -- -- 69
2020-10-24 05:00:00 20.5 18 Nordeste 27 Nordeste 0 -- -- 71
2020-10-24 04:00:00 20.5 19 Nordeste 26 Norte 0 -- -- 71
2020-10-24 03:00:00 20.5 19 Nordeste 29 Nordeste 0 -- -- 73
2020-10-24 02:00:00 20.8 17 Nordeste 24 Norte 0 -- -- 73
2020-10-24 01:00:00 20.8 19 Nordeste 27 Nordeste 0 -- -- 70
2020-10-24 00:00:00 20.9 22 Nordeste 28 Nordeste 0 -- -- 69
2020-10-23 23:00:00 21 22 Nordeste 30 Nordeste 0 -- -- 68
2020-10-23 22:00:00 21.1 23 Nordeste 30 Nordeste 0 -- -- 67
2020-10-23 21:00:00 21.2 24 Nordeste 30 Nordeste 0 -- -- 66
2020-10-23 20:00:00 21.4 25 Nordeste 41 Nordeste 0 -- -- 62
2020-10-23 19:00:00 21.8 27 Nordeste 37 Nordeste 0 -- -- 58
2020-10-23 18:00:00 22.1 31 Nordeste 42 Nordeste 0 -- -- 56
2020-10-23 17:00:00 22.6 26 Este 35 Este 0 -- -- 53
2020-10-23 16:00:00 22.6 25 Este 35 Este 0 -- -- 53
2020-10-23 15:00:00 22.6 24 Este 32 Este 0 -- -- 55
2020-10-23 14:00:00 23.5 22 Este 33 Este 0 -- -- 53
2020-10-23 13:00:00 23.2 21 Nordeste 36 Nordeste 0 -- -- 53
2020-10-23 12:00:00 23.1 15 Nordeste 23 Nordeste 0 -- -- 51
2020-10-23 11:00:00 22 19 Nordeste 26 Nordeste 0 -- -- 57
2020-10-23 10:00:00 21.4 20 Nordeste 26 Norte 0 -- -- 61
2020-10-23 09:00:00 21.1 17 Nordeste 24 Nordeste 0 -- -- 59
2020-10-23 08:00:00 20.3 11 Nordeste 22 Nordeste 0 -- -- 69
2020-10-23 07:00:00 20.5 13 Norte 19 Norte 0 -- -- 66
2020-10-23 06:00:00 20.7 15 Norte 21 Norte 0 -- -- 67
2020-10-23 05:00:00 20.7 14 Nordeste 17 Norte 0 -- -- 67
2020-10-23 04:00:00 20.6 13 Nordeste 25 Nordeste 0 -- -- 66
2020-10-23 03:00:00 20.8 16 Norte 23 Norte 0 -- -- 67
2020-10-23 02:00:00 20.8 14 Norte 19 Norte 0 -- -- 68
2020-10-23 01:00:00 20.8 14 Nordeste 19 Norte 0 -- -- 64
2020-10-23 00:00:00 21 14 Norte 23 Nordeste 0 -- -- 64
2020-10-22 23:00:00 21.1 14 Nordeste 22 Norte 0 -- -- 63
2020-10-22 22:00:00 21.3 17 Norte 25 Norte 0 -- -- 65
2020-10-22 21:00:00 21.4 15 Norte 27 Norte 0 -- -- 67
2020-10-22 20:00:00 21.7 16 Norte 23 Norte 0 -- -- 64
2020-10-22 19:00:00 22.1 19 Norte 26 Noroeste 0 -- -- 61
2020-10-22 18:00:00 22.7 18 Noroeste 32 Noroeste 0 -- -- 55
2020-10-22 17:00:00 22.9 19 Noroeste 27 Noroeste 0 -- -- 58
2020-10-22 16:00:00 23.2 18 Noroeste 29 Noroeste 0 -- -- 54
2020-10-22 15:00:00 23.1 17 Noroeste 26 Noroeste 0 -- -- 56
2020-10-22 14:00:00 23 19 Noroeste 32 Norte 0 -- -- 58
2020-10-22 13:00:00 23.5 16 Noroeste 24 Noroeste 0 -- -- 55
2020-10-22 12:00:00 23.2 15 Noroeste 24 Noroeste 0 -- -- 61
2020-10-22 11:00:00 22.5 14 Noroeste 21 Oeste 0 -- -- 62
2020-10-22 10:00:00 22.1 11 Noroeste 21 Oeste 0 -- -- 69
2020-10-22 09:00:00 21.3 9 Oeste 21 Noroeste 0 -- -- 73
2020-10-22 08:00:00 21.1 14 Noroeste 21 Noroeste 0 -- -- 75
2020-10-22 07:00:00 20.7 12 Oeste 19 Noroeste 0 -- -- 76
2020-10-22 06:00:00 20.8 12 Oeste 19 Noroeste 0 -- -- 83
2020-10-22 05:00:00 19.8 8 Sudoeste 10 Sudoeste 0 -- -- 87
2020-10-22 04:00:00 19.6 7 Sudoeste 32 Oeste 0.4 -- -- 83
2020-10-22 03:00:00 20.7 21 Noroeste 37 Noroeste 0 -- -- 74
2020-10-22 02:00:00 21.4 7 Oeste 15 Oeste 0 -- -- 78
2020-10-22 01:00:00 21.7 10 Oeste 15 Oeste 0 -- -- 75
2020-10-22 00:00:00 21.4 8 Oeste 16 Oeste 0 -- -- 73
2020-10-21 23:00:00 22 8 Oeste 19 Noroeste 0 -- -- 73
2020-10-21 22:00:00 21.8 14 Noroeste 34 Oeste 0 -- -- 77
2020-10-21 21:00:00 22 14 Noroeste 22 Oeste 0 -- -- 78
2020-10-21 20:00:00 21.9 9 Oeste 20 Oeste 0 -- -- 79
2020-10-21 19:00:00 22 13 Oeste 25 Oeste 0 -- -- 79
2020-10-21 18:00:00 22.2 15 Oeste 24 Oeste 0 -- -- 76
2020-10-21 17:00:00 22.4 17 Oeste 30 Oeste 0 -- -- 75
2020-10-21 16:00:00 21.8 22 Noroeste 37 Oeste 0.6 -- -- 73
2020-10-21 15:00:00 23.8 18 Oeste 32 Noroeste 0 -- -- 58
2020-10-21 14:00:00 24.6 15 Oeste 30 Oeste 0 -- -- 59
2020-10-21 13:00:00 24 18 Oeste 30 Oeste 0 -- -- 59
2020-10-21 12:00:00 24 14 Oeste 27 Oeste 0 -- -- 68
2020-10-21 11:00:00 22.5 20 Sudoeste 33 Sudoeste 0 -- -- 73
2020-10-21 10:00:00 23.7 12 Sudoeste 19 Sudoeste 0 -- -- 71
2020-10-21 09:00:00 22.1 7 Sur 11 Sudoeste 0 -- -- 79
2020-10-21 08:00:00 21.7 7 Sudoeste 10 Sudoeste 0 -- -- 78
2020-10-21 07:00:00 21.8 8 Sudoeste 11 Sudoeste 0 -- -- 79
2020-10-21 06:00:00 21.8 6 Sudoeste 9 Sudoeste 0 -- -- 79
2020-10-21 05:00:00 22.2 8 Sudoeste 11 Sudoeste 0 -- -- 79
2020-10-21 04:00:00 22.5 6 Sur 9 Sur 0 -- -- 77
2020-10-21 03:00:00 22.7 6 Oeste 16 Noroeste 0 -- -- 75
2020-10-21 02:00:00 22.8 12 Oeste 21 Oeste 0 -- -- 74
2020-10-21 01:00:00 22.8 14 Noroeste 25 Oeste 0 -- -- 77
2020-10-21 00:00:00 22.8 18 Noroeste 26 Oeste 0 -- -- 84
2020-10-20 23:00:00 23 16 Oeste 25 Oeste 0 -- -- 90
2020-10-20 22:00:00 23 10 Oeste 15 Sudoeste 0 -- -- 91
2020-10-20 21:00:00 23.1 9 Oeste 24 Oeste 0 -- -- 91
2020-10-20 20:00:00 23.2 19 Oeste 37 Oeste 0 -- -- 90
2020-10-20 19:00:00 24.1 26 Oeste 45 Sudoeste 0 -- -- 81
2020-10-20 18:00:00 25.5 28 Oeste 43 Oeste 0 -- -- 74
2020-10-20 17:00:00 25.1 26 Sudoeste 44 Sudoeste 0 -- -- 73
2020-10-20 16:00:00 25.2 23 Sudoeste 51 Sudoeste 0 -- -- 72
2020-10-20 15:00:00 26.2 35 Sudoeste 53 Sudoeste 0 -- -- 60
2020-10-20 14:00:00 27.5 35 Sudoeste 70 Sudoeste 0 -- -- 50
2020-10-20 13:00:00 28.8 50 Sudoeste 75 Sudoeste 0 -- -- 36
2020-10-20 12:00:00 29.3 49 Sudoeste 75 Sudoeste 0 -- -- 31
2020-10-20 11:00:00 29.3 43 Sudoeste 72 Sudoeste 0 -- -- 34
2020-10-20 10:00:00 27.8 35 Sudoeste 52 Sudoeste 0 -- -- 46
2020-10-20 09:00:00 25.8 22 Sur 40 Sudoeste 0 -- -- 59
2020-10-20 08:00:00 23.5 9 Sudeste 30 Sur 0 -- -- 73
2020-10-20 07:00:00 22.8 8 Sudoeste 13 Oeste 0 -- -- 80
2020-10-20 06:00:00 22.3 5 Norte 9 Norte 0 -- -- 85
2020-10-20 05:00:00 20.7 0 Calma 6 Sudeste 0 -- -- 87
2020-10-20 04:00:00 20.8 3 Sur 13 Sudeste 0 -- -- 88
2020-10-20 03:00:00 20.9 4 Sudeste 14 Sudeste 0 -- -- 90
2020-10-20 02:00:00 21.4 10 Sudeste 13 Sudeste 0 -- -- 92
2020-10-20 01:00:00 21.2 8 Sudeste 13 Sudeste 0 -- -- 88
2020-10-20 00:00:00 21.6 10 Sudeste 16 Sudeste 0 -- -- 89
2020-10-19 23:00:00 22 0 Calma 5 Noroeste 0 -- -- 85
2020-10-19 22:00:00 22.6 3 Noroeste 9 Oeste 0 -- -- 82
2020-10-19 21:00:00 22.7 5 Noroeste 8 Noroeste 0 -- -- 79
2020-10-19 20:00:00 22.3 6 Sudeste 19 Sudeste 0 -- -- 83
2020-10-19 19:00:00 22.6 16 Sudeste 22 Sudeste 0 -- -- 80
2020-10-19 18:00:00 22.9 17 Sudeste 23 Sudeste 0 -- -- 77
2020-10-19 17:00:00 23.1 16 Este 19 Este 0 -- -- 79
2020-10-19 16:00:00 22.9 14 Sudeste 21 Sudeste 0 -- -- 81
2020-10-19 15:00:00 22.6 18 Sudeste 25 Sudeste 0 -- -- 81
2020-10-19 14:00:00 22.6 16 Este 24 Este 0 -- -- 83
2020-10-19 13:00:00 22.2 20 Sudeste 33 Sudeste 0 -- -- 84
2020-10-19 12:00:00 22.4 22 Sudeste 32 Sudeste 0 -- -- 79
2020-10-19 11:00:00 22.6 20 Sudeste 24 Sudeste 0 -- -- 73
2020-10-19 10:00:00 22.4 12 Sudeste 18 Sudeste 0 -- -- 78
2020-10-19 09:00:00 20.5 9 Sudeste 14 Sudeste 0 -- -- 82
2020-10-19 08:00:00 18.8 9 Sur 15 Sur 0 -- -- 87
2020-10-19 07:00:00 18.9 5 Sur 12 Sur 0 -- -- 87
2020-10-19 06:00:00 19.2 4 Noroeste 9 Sudoeste 0 -- -- 88
2020-10-19 05:00:00 19.2 6 Sur 9 Sur 0 -- -- 88
2020-10-19 04:00:00 19.2 3 Norte 7 Norte 0 -- -- 87
2020-10-19 03:00:00 19.6 3 Norte 6 Sur 0 -- -- 86
2020-10-19 02:00:00 19.5 4 Sur 8 Sur 0 -- -- 84
2020-10-19 01:00:00 19.9 4 Sudeste 9 Sur 0 -- -- 81
2020-10-19 00:00:00 20.2 7 Sur 13 Sur 0 -- -- 78
2020-10-18 23:00:00 20.1 5 Sur 8 Sur 0 -- -- 78
2020-10-18 22:00:00 20.2 5 Sur 14 Sur 0 -- -- 77
2020-10-18 21:00:00 20.1 9 Sudeste 22 Sudeste 0 -- -- 79
2020-10-18 20:00:00 20.6 17 Sudeste 26 Sudeste 0 -- -- 79
2020-10-18 19:00:00 21 21 Sudeste 24 Sudeste 0 -- -- 74
2020-10-18 18:00:00 21.5 17 Sudeste 23 Sudeste 0 -- -- 73
2020-10-18 17:00:00 21.4 20 Sudeste 27 Sudeste 0 -- -- 72
2020-10-18 16:00:00 21.6 17 Sudeste 27 Sudeste 0 -- -- 72
2020-10-18 15:00:00 21.3 23 Sudeste 35 Sudeste 0 -- -- 74
2020-10-18 14:00:00 21.7 21 Sudeste 27 Sudeste 0 -- -- 73
2020-10-18 13:00:00 21.7 21 Sudeste 26 Sudeste 0 -- -- 70
2020-10-18 12:00:00 21.8 17 Sudeste 26 Sudeste 0 -- -- 69
2020-10-18 11:00:00 21.2 13 Sudeste 21 Sudeste 0 -- -- 72
2020-10-18 10:00:00 21.2 10 Sudeste 14 Sudeste 0 -- -- 72
2020-10-18 09:00:00 19.8 6 Sur 10 Sur 0 -- -- 78
2020-10-18 08:00:00 18.6 6 Sur 10 Sudoeste 0 -- -- 80
2020-10-18 07:00:00 18.8 7 Sur 9 Sur 0 -- -- 79
2020-10-18 06:00:00 18.6 5 Sudoeste 7 Sudoeste 0 -- -- 79
2020-10-18 05:00:00 18.6 2 Sudoeste 8 Norte 0 -- -- 77
2020-10-18 04:00:00 19.1 4 Sudeste 8 Sudeste 0 -- -- 76
2020-10-18 03:00:00 19.5 5 Sudeste 16 Sudeste 0 -- -- 74
2020-10-18 02:00:00 20.4 11 Este 16 Este 0 -- -- 73
2020-10-18 01:00:00 20.5 10 Este 18 Este 0 -- -- 73
2020-10-18 00:00:00 20.6 13 Sudeste 18 Este 0 -- -- 73
2020-10-17 23:00:00 20.7 12 Este 20 Este 0 -- -- 72
2020-10-17 22:00:00 21.1 12 Este 16 Este 0 -- -- 73
2020-10-17 21:00:00 21 9 Este 14 Este 0 -- -- 71
2020-10-17 20:00:00 21 9 Este 16 Este 0 -- -- 70
2020-10-17 19:00:00 21.5 9 Este 12 Este 0 -- -- 68
2020-10-17 18:00:00 22.5 8 Sudeste 12 Este 0 -- -- 62
2020-10-17 17:00:00 23.5 7 Este 14 Este 0 -- -- 58
2020-10-17 16:00:00 23.3 6 Sudeste 14 Este 0 -- -- 61
2020-10-17 15:00:00 22.4 10 Este 15 Este 0 -- -- 65
2020-10-17 14:00:00 22.6 10 Este 18 Este 0 -- -- 64
2020-10-17 13:00:00 21.9 12 Este 21 Este 0 -- -- 70
2020-10-17 12:00:00 22.4 16 Este 22 Este 0 -- -- 70
2020-10-17 11:00:00 22.8 9 Este 15 Nordeste 0 -- -- 66
2020-10-17 10:00:00 21.6 10 Nordeste 17 Nordeste 0 -- -- 72
2020-10-17 09:00:00 20.9 12 Nordeste 18 Nordeste 0 -- -- 73
2020-10-17 08:00:00 20.6 15 Norte 24 Norte 0 -- -- 74
2020-10-17 07:00:00 20.8 14 Nordeste 18 Norte 0 -- -- 72
2020-10-17 06:00:00 20.7 14 Nordeste 17 Nordeste 0 -- -- 72
2020-10-17 05:00:00 20.8 13 Nordeste 18 Norte 0 -- -- 72
2020-10-17 04:00:00 21 10 Nordeste 15 Nordeste 0 -- -- 71
2020-10-17 03:00:00 20.9 12 Nordeste 18 Nordeste 0 -- -- 71
2020-10-17 02:00:00 20.9 11 Nordeste 17 Nordeste 0 -- -- 71
2020-10-17 01:00:00 21.2 14 Nordeste 18 Nordeste 0 -- -- 71
2020-10-17 00:00:00 21.3 15 Norte 20 Norte 0 -- -- 70
2020-10-16 23:00:00 21.4 15 Nordeste 21 Nordeste 0 -- -- 69
2020-10-16 22:00:00 21.6 18 Nordeste 27 Nordeste 0 -- -- 69
2020-10-16 21:00:00 21.7 22 Nordeste 32 Nordeste 0 -- -- 69
2020-10-16 20:00:00 21.8 17 Nordeste 29 Nordeste 0 -- -- 73
2020-10-16 19:00:00 22 16 Nordeste 26 Nordeste 0 -- -- 72
2020-10-16 18:00:00 22.5 15 Nordeste 25 Nordeste 0 -- -- 70
2020-10-16 17:00:00 23.4 15 Nordeste 23 Este 0 -- -- 65
2020-10-16 16:00:00 23.8 12 Este 23 Este 0 -- -- 62
2020-10-16 15:00:00 23.9 14 Este 24 Este 0 -- -- 62
2020-10-16 14:00:00 23.6 15 Este 24 Este 0 -- -- 64
2020-10-16 13:00:00 23.5 18 Este 31 Este 0 -- -- 65
2020-10-16 12:00:00 23.3 18 Este 23 Este 0 -- -- 65
2020-10-16 11:00:00 22.4 13 Nordeste 18 Nordeste 0 -- -- 69
2020-10-16 10:00:00 21.9 15 Nordeste 22 Nordeste 0 -- -- 74
2020-10-16 09:00:00 21.3 14 Nordeste 23 Nordeste 0 -- -- 74
2020-10-16 08:00:00 20.9 14 Nordeste 20 Nordeste 0 -- -- 77
2020-10-16 07:00:00 20.7 7 Nordeste 17 Este 0 -- -- 77
2020-10-16 06:00:00 20.9 12 Nordeste 16 Nordeste 0 -- -- 76
2020-10-16 05:00:00 20.8 11 Nordeste 21 Norte 0 -- -- 75
2020-10-16 04:00:00 20.9 14 Norte 18 Norte 0 -- -- 77
2020-10-16 03:00:00 20.9 15 Nordeste 23 Nordeste 0 -- -- 77
2020-10-16 02:00:00 21.3 18 Nordeste 22 Nordeste 0 -- -- 78
2020-10-16 01:00:00 21.4 15 Nordeste 21 Nordeste 0 -- -- 77
2020-10-16 00:00:00 21.5 16 Nordeste 24 Norte 0 -- -- 76
2020-10-15 23:00:00 21.6 19 Norte 26 Nordeste 0 -- -- 76
2020-10-15 22:00:00 21.8 21 Nordeste 26 Nordeste 0 -- -- 76
2020-10-15 21:00:00 22 19 Nordeste 30 Nordeste 0 -- -- 77
2020-10-15 20:00:00 21.9 18 Nordeste 29 Nordeste 0 -- -- 77
2020-10-15 19:00:00 22.3 21 Este 35 Este 0 -- -- 74
2020-10-15 18:00:00 22.6 19 Este 27 Este 0 -- -- 72
2020-10-15 17:00:00 23.5 16 Este 25 Este 0 -- -- 67
2020-10-15 16:00:00 23.6 16 Este 26 Este 0 -- -- 67
2020-10-15 15:00:00 23.2 20 Este 28 Este 0 -- -- 69
2020-10-15 14:00:00 23.4 21 Este 31 Este 0 -- -- 68
2020-10-15 13:00:00 22.9 25 Este 39 Este 0 -- -- 70
2020-10-15 12:00:00 23.2 25 Este 36 Este 0 -- -- 67
2020-10-15 11:00:00 22.7 15 Nordeste 20 Nordeste 0 -- -- 70
2020-10-15 10:00:00 22.1 12 Nordeste 22 Nordeste 0 -- -- 72
2020-10-15 09:00:00 21.3 19 Norte 23 Norte 0 -- -- 75
2020-10-15 08:00:00 21.1 23 Norte 34 Nordeste 0 -- -- 76
2020-10-15 07:00:00 21.2 22 Nordeste 35 Nordeste 0 -- -- 76
2020-10-15 06:00:00 21.8 21 Nordeste 32 Nordeste 0 -- -- 78
2020-10-15 05:00:00 21.7 23 Nordeste 34 Nordeste 0 -- -- 75
2020-10-15 04:00:00 21.7 20 Nordeste 30 Nordeste 0 -- -- 75
2020-10-15 03:00:00 21.7 15 Nordeste 25 Nordeste 0 -- -- 78
2020-10-15 02:00:00 21.8 20 Nordeste 31 Nordeste 0 -- -- 77
2020-10-15 01:00:00 21.6 20 Nordeste 27 Nordeste 0 -- -- 80
2020-10-15 00:00:00 21.3 9 Este 20 Nordeste 0 -- -- 79
2020-10-14 23:00:00 21.6 16 Nordeste 26 Nordeste 0 -- -- 80
2020-10-14 22:00:00 21.6 21 Nordeste 30 Nordeste 0 -- -- 81
2020-10-14 21:00:00 21.8 27 Nordeste 44 Nordeste 0 -- -- 80
2020-10-14 20:00:00 22.1 19 Nordeste 32 Nordeste 0 -- -- 83
2020-10-14 19:00:00 22.4 20 Nordeste 31 Nordeste 0 -- -- 80
2020-10-14 18:00:00 22.8 21 Nordeste 27 Nordeste 0 -- -- 76
2020-10-14 17:00:00 23.5 15 Este 21 Este 0 -- -- 72
2020-10-14 16:00:00 24.3 12 Este 21 Este 0 -- -- 71
2020-10-14 15:00:00 23.8 15 Este 18 Este 0 -- -- 73
2020-10-14 14:00:00 25 10 Este 15 Este 0 -- -- 67
2020-10-14 13:00:00 24.6 5 Nordeste 8 Norte 0 -- -- 71
2020-10-14 12:00:00 23.8 8 Norte 12 Nordeste 0 -- -- 78
2020-10-14 11:00:00 22.4 12 Nordeste 17 Nordeste 0 -- -- 83
2020-10-14 10:00:00 22.4 9 Nordeste 12 Nordeste 0 -- -- 82
2020-10-14 09:00:00 21.7 8 Nordeste 12 Nordeste 0 -- -- 86
2020-10-14 08:00:00 20.9 8 Nordeste 14 Este 0 -- -- 88
2020-10-14 07:00:00 21.1 13 Nordeste 18 Nordeste 0 -- -- 89
2020-10-14 06:00:00 21.3 12 Nordeste 20 Nordeste 0 -- -- 88
2020-10-14 05:00:00 21.3 14 Nordeste 20 Nordeste 0 -- -- 88
2020-10-14 04:00:00 21.4 19 Nordeste 33 Nordeste 0 -- -- 89
2020-10-14 03:00:00 21.6 27 Nordeste 33 Nordeste 0 -- -- 86
2020-10-14 02:00:00 21.7 24 Este 36 Este 0 -- -- 80
2020-10-14 01:00:00 22.1 12 Nordeste 17 Este 0 -- -- 75
2020-10-14 00:00:00 22.7 8 Norte 24 Nordeste 0 -- -- 77
2020-10-13 23:00:00 22.5 17 Nordeste 22 Nordeste 0 -- -- 77
2020-10-13 22:00:00 23 20 Nordeste 25 Nordeste 0 -- -- 76
2020-10-13 21:00:00 23.2 10 Este 17 Este 0 -- -- 75
2020-10-13 20:00:00 23.1 8 Sur 16 Este 0 -- -- 74
2020-10-13 19:00:00 23.4 11 Este 15 Este 0 -- -- 73
2020-10-13 18:00:00 23.6 12 Sudeste 21 Este 0 -- -- 71
2020-10-13 17:00:00 24.7 14 Este 22 Este 0 -- -- 66
2020-10-13 16:00:00 24.5 14 Este 25 Sudeste 0 -- -- 71
2020-10-13 15:00:00 24.7 19 Este 30 Nordeste 0 -- -- 70
2020-10-13 14:00:00 25 21 Este 30 Este 0 -- -- 70
2020-10-13 13:00:00 24.1 18 Este 26 Este 0 -- -- 80
2020-10-13 12:00:00 24 18 Este 28 Este 0 -- -- 81
2020-10-13 11:00:00 23.7 19 Este 27 Este 0 -- -- 84
2020-10-13 10:00:00 22.7 15 Este 24 Este 0 -- -- 91
2020-10-13 09:00:00 22.5 21 Sudeste 28 Sudeste 0 -- -- 92
2020-10-13 08:00:00 22.5 19 Sudeste 28 Sudeste 0 -- -- 89
2020-10-13 07:00:00 22.5 20 Sudeste 32 Sudeste 0 -- -- 86
2020-10-13 06:00:00 22.8 19 Sudeste 28 Este 0 -- -- 81
2020-10-13 05:00:00 22.9 14 Este 26 Nordeste 0 -- -- 76
2020-10-13 04:00:00 22.5 18 Este 26 Este 0 -- -- 86
2020-10-13 03:00:00 -- -- -- -- -- -- -- -- --
2020-10-13 02:00:00 23.2 18 Sudeste 24 Este 0 -- -- 81
2020-10-13 01:00:00 23.5 17 Sudeste 25 Sudeste 0 -- -- 76
2020-10-13 00:00:00 -- -- -- -- -- -- -- -- --
2020-10-12 23:00:00 24.5 19 Este 37 Nordeste 0 -- -- 61
2020-10-12 22:00:00 24.4 23 Nordeste 40 Nordeste 0 -- -- 64
2020-10-12 21:00:00 23.7 6 Nordeste 18 Este 0 -- -- 75
2020-10-12 20:00:00 24.2 13 Este 21 Este 0 -- -- 76
2020-10-12 19:00:00 23.8 11 Sudeste 21 Sudeste 0 -- -- 86
2020-10-12 18:00:00 23.9 13 Este 21 Este 0 -- -- 90
2020-10-12 17:00:00 23.7 18 Sudeste 27 Sudeste 0 -- -- 91
2020-10-12 16:00:00 23.9 21 Sudeste 30 Sudeste 0 -- -- 90
2020-10-12 15:00:00 24.5 19 Este 26 Este 0 -- -- 88
2020-10-12 14:00:00 24.3 20 Este 30 Este 0 -- -- 89
2020-10-12 13:00:00 24.2 19 Este 30 Este 0 -- -- 89
2020-10-12 12:00:00 23.9 20 Este 28 Este 0 -- -- 90
2020-10-12 11:00:00 23.8 18 Este 24 Sudeste 0 -- -- 90
2020-10-12 10:00:00 23.3 18 Sudeste 23 Sudeste 0 -- -- 90
2020-10-12 09:00:00 22.8 17 Este 25 Sudeste 0 -- -- 93
2020-10-12 08:00:00 22.3 22 Sudeste 29 Sudeste 0 -- -- 94
2020-10-12 07:00:00 22.2 21 Sudeste 27 Sudeste 0 -- -- 94
2020-10-12 06:00:00 22.2 22 Sudeste 29 Sudeste 0 -- -- 94
2020-10-12 05:00:00 22 19 Este 26 Este 0 -- -- 95
2020-10-12 04:00:00 21.8 22 Este 36 Este 0 -- -- 96
2020-10-12 03:00:00 -- -- -- -- -- -- -- -- --
2020-10-12 02:00:00 22.1 18 Este 27 Este 0 -- -- 93
2020-10-12 01:00:00 22.6 20 Este 28 Este 0 -- -- 89
2020-10-12 00:00:00 22.4 22 Este 27 Este 0 -- -- 89
2020-10-11 23:00:00 22.5 14 Este 25 Este 0 -- -- 90
2020-10-11 22:00:00 22.7 12 Este 20 Este 0 -- -- 88
2020-10-11 21:00:00 22.8 17 Este 26 Nordeste 0 -- -- 90
2020-10-11 20:00:00 -- -- -- -- -- -- -- -- --
2020-10-11 19:00:00 -- -- -- -- -- -- -- -- --
2020-10-11 18:00:00 24.2 10 Noroeste 33 Este 0 -- -- 82
2020-10-11 17:00:00 24.8 23 Este 32 Nordeste 0 -- -- 78
2020-10-11 16:00:00 24.9 25 Este 37 Este 0 -- -- 78
2020-10-11 15:00:00 25 27 Este 35 Este 0 -- -- 75
2020-10-11 14:00:00 25 24 Este 33 Nordeste 0 -- -- 78
2020-10-11 13:00:00 25 15 Este 23 Este 0 -- -- 77
2020-10-11 12:00:00 23.8 14 Nordeste 21 Nordeste 0 -- -- 81
2020-10-11 11:00:00 24.8 4 Norte 7 Este 0 -- -- 71
2020-10-11 10:00:00 24.8 3 Sudeste 6 Sur 0 -- -- 75
2020-10-11 09:00:00 24 0 Calma 7 Norte 0 -- -- 83
2020-10-11 08:00:00 21.1 3 Oeste 12 Norte 0 -- -- 89
2020-10-11 07:00:00 21.8 10 Norte 24 Nordeste 0 -- -- 88
2020-10-11 06:00:00 21.9 17 Nordeste 23 Nordeste 0 -- -- 89
2020-10-11 05:00:00 21.7 9 Este 19 Nordeste 0 -- -- 89
2020-10-11 04:00:00 21.9 13 Nordeste 20 Nordeste 0 -- -- 89
2020-10-11 03:00:00 21.9 14 Nordeste 21 Nordeste 0 -- -- 88
2020-10-11 02:00:00 22.1 10 Norte 24 Este 0 -- -- 87
2020-10-11 01:00:00 22.2 13 Este 16 Este 0 -- -- 87
2020-10-11 00:00:00 22.3 8 Norte 22 Nordeste 0 -- -- 85
2020-10-10 23:00:00 22.3 15 Nordeste 28 Nordeste 0 -- -- 86
2020-10-10 22:00:00 22.5 17 Nordeste 24 Este 0 -- -- 83
2020-10-10 21:00:00 22.9 14 Norte 23 Norte 0 -- -- 81
2020-10-10 20:00:00 23.3 17 Norte 27 Noroeste 0 -- -- 80
2020-10-10 19:00:00 23.7 10 Este 30 Nordeste 0 -- -- 80
2020-10-10 18:00:00 23.7 13 Norte 28 Norte 0 -- -- 79
2020-10-10 17:00:00 23.4 22 Nordeste 37 Nordeste 0 -- -- 83
2020-10-10 16:00:00 23.8 15 Nordeste 25 Nordeste 0 -- -- 80
2020-10-10 15:00:00 24 21 Nordeste 34 Nordeste 0 -- -- 75
2020-10-10 14:00:00 24.5 21 Nordeste 28 Nordeste 0 -- -- 74
2020-10-10 13:00:00 25.1 17 Este 27 Este 0 -- -- 70
2020-10-10 12:00:00 26.4 3 Noroeste 6 Este 0 -- -- 65
2020-10-10 11:00:00 24.7 3 Norte 10 Norte 0 -- -- 72
2020-10-10 10:00:00 23.1 8 Norte 12 Nordeste 0 -- -- 79
2020-10-10 09:00:00 22 7 Nordeste 17 Nordeste 0 -- -- 83
2020-10-10 08:00:00 21.7 13 Norte 22 Norte 0 -- -- 85
2020-10-10 07:00:00 21.6 6 Norte 15 Norte 0 -- -- 85
2020-10-10 06:00:00 21.6 10 Norte 24 Norte 0 -- -- 85
2020-10-10 05:00:00 21.7 12 Norte 23 Norte 0 -- -- 87
2020-10-10 04:00:00 21.8 20 Norte 24 Norte 0 -- -- 87
2020-10-10 03:00:00 21.9 13 Nordeste 20 Norte 0 -- -- 87
2020-10-10 02:00:00 21.9 15 Norte 26 Norte 0 -- -- 88
2020-10-10 01:00:00 22.1 21 Norte 35 Norte 0 -- -- 88
2020-10-10 00:00:00 22.2 22 Norte 35 Norte 0 -- -- 88
2020-10-09 23:00:00 22.4 24 Norte 30 Norte 0 -- -- 89
2020-10-09 22:00:00 22.5 24 Norte 40 Noroeste 0 -- -- 89
2020-10-09 21:00:00 22.6 22 Norte 36 Norte 0 -- -- 89
2020-10-09 20:00:00 22.7 24 Norte 33 Norte 0 -- -- 89
2020-10-09 19:00:00 23.2 28 Norte 46 Norte 0 -- -- 86
2020-10-09 18:00:00 23.5 32 Norte 45 Norte 0 -- -- 85
2020-10-09 17:00:00 24.3 18 Norte 37 Norte 0 -- -- 81
2020-10-09 16:00:00 24.1 29 Norte 36 Noroeste 0 -- -- 81
2020-10-09 15:00:00 24.3 26 Norte 43 Norte 0 -- -- 81
2020-10-09 14:00:00 24.1 21 Noroeste 38 Noroeste 0 -- -- 81
2020-10-09 13:00:00 24.2 26 Noroeste 36 Norte 0 -- -- 81
2020-10-09 12:00:00 24 23 Noroeste 30 Norte 0 -- -- 81
2020-10-09 11:00:00 24.7 7 Noroeste 11 Noroeste 0 -- -- 76
2020-10-09 10:00:00 23.9 4 Norte 13 Norte 0 -- -- 81
2020-10-09 09:00:00 23 6 Norte 12 Norte 0 -- -- 85
2020-10-09 08:00:00 21.9 7 Norte 10 Norte 0 -- -- 90
2020-10-09 07:00:00 21.8 10 Norte 17 Norte 0 -- -- 92
2020-10-09 06:00:00 21.9 14 Norte 17 Norte 0 -- -- 92
2020-10-09 05:00:00 22 10 Norte 17 Norte 0 -- -- 90
2020-10-09 04:00:00 22 14 Norte 21 Norte 0 -- -- 90
2020-10-09 03:00:00 22.1 13 Norte 19 Norte 0 -- -- 90
2020-10-09 02:00:00 22.2 7 Nordeste 26 Norte 0 -- -- 90
2020-10-09 01:00:00 22.5 19 Norte 30 Norte 0 -- -- 88
2020-10-09 00:00:00 22.4 19 Norte 33 Norte 0 -- -- 89
2020-10-08 23:00:00 22.4 23 Norte 32 Norte 0 -- -- 90
2020-10-08 22:00:00 22.4 20 Norte 33 Noroeste 0 -- -- 91
2020-10-08 21:00:00 22.4 22 Noroeste 32 Norte 0 -- -- 91
2020-10-08 20:00:00 22.6 26 Norte 40 Norte 0 -- -- 92
2020-10-08 19:00:00 23 28 Noroeste 39 Noroeste 0 -- -- 90
2020-10-08 18:00:00 23.7 20 Noroeste 30 Noroeste 0 -- -- 86
2020-10-08 17:00:00 24.3 18 Norte 24 Noroeste 0 -- -- 84
2020-10-08 16:00:00 24.9 12 Norte 16 Norte 0 -- -- 81
2020-10-08 15:00:00 25.2 5 Norte 9 Nordeste 0 -- -- 79
2020-10-08 14:00:00 25.6 4 Norte 14 Este 0 -- -- 79
2020-10-08 13:00:00 24.1 13 Este 18 Sudeste 0 -- -- 84
2020-10-08 12:00:00 24 14 Este 24 Este 0 -- -- 85
2020-10-08 11:00:00 23.6 15 Este 24 Este 0 -- -- 86
2020-10-08 10:00:00 23.2 13 Este 19 Nordeste 0 -- -- 89
2020-10-08 09:00:00 22.5 15 Nordeste 22 Nordeste 0 -- -- 90
2020-10-08 08:00:00 21.6 18 Este 26 Este 0 -- -- 92
2020-10-08 07:00:00 21.7 15 Este 19 Este 0 -- -- 93
2020-10-08 06:00:00 20.9 5 Sur 8 Sudoeste 0 -- -- 95
2020-10-08 05:00:00 21.7 4 Noroeste 10 Nordeste 0 -- -- 93
2020-10-08 04:00:00 21.8 9 Nordeste 13 Nordeste 0 -- -- 95
2020-10-08 03:00:00 22 9 Nordeste 12 Nordeste 0 -- -- 95
2020-10-08 02:00:00 21.9 5 Este 11 Este 0 -- -- 94
2020-10-08 01:00:00 22.1 5 Este 13 Este 0 -- -- 94
2020-10-08 00:00:00 22.3 9 Este 18 Este 0 -- -- 93
2020-10-07 23:00:00 22.5 13 Este 17 Este 0 -- -- 92
2020-10-07 22:00:00 22.1 8 Sudeste 13 Sudeste 0 -- -- 92
2020-10-07 21:00:00 22.3 9 Sudeste 12 Sudeste 0 -- -- 91
2020-10-07 20:00:00 22.7 9 Este 12 Nordeste 0 -- -- 90
2020-10-07 19:00:00 23.6 8 Este 13 Este 0 -- -- 87
2020-10-07 18:00:00 23.4 11 Sudeste 15 Este 0 -- -- 85
2020-10-07 17:00:00 24.5 7 Este 12 Nordeste 0 -- -- 83
2020-10-07 16:00:00 25.2 7 Este 15 Este 0 -- -- 80
2020-10-07 15:00:00 24.2 12 Este 19 Este 0 -- -- 84
2020-10-07 14:00:00 24.2 13 Este 19 Sudeste 0 -- -- 84
2020-10-07 13:00:00 24 16 Este 26 Este 0 -- -- 85
2020-10-07 12:00:00 23.8 18 Este 26 Este 0 -- -- 82
2020-10-07 11:00:00 23.5 21 Este 27 Este 0 -- -- 83
2020-10-07 10:00:00 23.2 17 Este 30 Este 0 -- -- 86
2020-10-07 09:00:00 21.9 19 Nordeste 24 Este 0 -- -- 91
2020-10-07 08:00:00 21.7 18 Este 28 Este 0 -- -- 92
2020-10-07 07:00:00 21.6 18 Este 31 Este 0 -- -- 93
2020-10-07 06:00:00 21.7 15 Este 19 Este 0 -- -- 92
2020-10-07 05:00:00 21.7 14 Nordeste 22 Este 0 -- -- 92
2020-10-07 04:00:00 21.8 16 Este 22 Este 0 -- -- 91
2020-10-07 03:00:00 21.9 18 Nordeste 25 Este 0 -- -- 89
2020-10-07 02:00:00 21.9 21 Nordeste 30 Este 0 -- -- 89
2020-10-07 01:00:00 21.9 21 Este 28 Este 0 -- -- 89
2020-10-07 00:00:00 22 22 Nordeste 29 Nordeste 0 -- -- 84
2020-10-06 23:00:00 22.1 18 Nordeste 28 Nordeste 0 -- -- 82
2020-10-06 22:00:00 22.2 22 Nordeste 35 Este 0 -- -- 82
2020-10-06 21:00:00 22.1 15 Nordeste 31 Nordeste 0 -- -- 81
2020-10-06 20:00:00 22.2 27 Nordeste 35 Este 0 -- -- 83
2020-10-06 19:00:00 22.4 26 Este 36 Nordeste 0 -- -- 82
2020-10-06 18:00:00 22.7 18 Este 27 Nordeste 0 -- -- 77
2020-10-06 17:00:00 23 17 Este 30 Este 0 -- -- 76
2020-10-06 16:00:00 23.3 20 Nordeste 31 Este 0 -- -- 76
2020-10-06 15:00:00 23 24 Este 32 Este 0 -- -- 76
2020-10-06 14:00:00 23 26 Este 33 Nordeste 0 -- -- 77
2020-10-06 13:00:00 22.7 23 Nordeste 32 Nordeste 0 -- -- 76
2020-10-06 12:00:00 22.4 23 Nordeste 33 Nordeste 0 -- -- 77
2020-10-06 11:00:00 22.1 18 Nordeste 29 Nordeste 0 -- -- 80
2020-10-06 10:00:00 21.9 20 Nordeste 25 Nordeste 0 -- -- 81
2020-10-06 09:00:00 21.7 20 Nordeste 30 Nordeste 0 -- -- 81
2020-10-06 08:00:00 21.5 19 Nordeste 24 Nordeste 0 -- -- 82
2020-10-06 07:00:00 21.6 17 Nordeste 23 Nordeste 0 -- -- 80
2020-10-06 06:00:00 21.5 15 Nordeste 22 Nordeste 0 -- -- 78
2020-10-06 05:00:00 21.7 16 Nordeste 22 Nordeste 0 -- -- 78
2020-10-06 04:00:00 21.6 16 Norte 23 Norte 0 -- -- 78
2020-10-06 03:00:00 21.4 19 Nordeste 26 Nordeste 0 -- -- 77
2020-10-06 02:00:00 21.5 19 Nordeste 24 Nordeste 0 -- -- 76
2020-10-06 01:00:00 21.7 20 Nordeste 24 Nordeste 0 -- -- 76
2020-10-06 00:00:00 21.8 15 Nordeste 25 Nordeste 0 -- -- 76
2020-10-05 23:00:00 22.1 18 Nordeste 29 Norte 0 -- -- 74
2020-10-05 22:00:00 22.2 25 Norte 33 Norte 0 -- -- 74
2020-10-05 21:00:00 22.3 19 Nordeste 27 Nordeste 0 -- -- 78
2020-10-05 20:00:00 22.3 21 Nordeste 34 Este 0 -- -- 78
2020-10-05 19:00:00 22.6 26 Este 37 Este 0 -- -- 77
2020-10-05 18:00:00 23 28 Este 41 Este 0 -- -- 75
2020-10-05 17:00:00 23.5 31 Este 38 Este 0 -- -- 70
2020-10-05 16:00:00 23.8 28 Este 40 Este 0 -- -- 69
2020-10-05 15:00:00 23.6 24 Este 36 Este 0 -- -- 71
2020-10-05 14:00:00 23.9 23 Este 38 Este 0 -- -- 67
2020-10-05 13:00:00 23.7 28 Este 38 Este 0 -- -- 68
2020-10-05 12:00:00 23.7 26 Nordeste 40 Nordeste 0 -- -- 70
2020-10-05 11:00:00 23.7 22 Este 35 Nordeste 0 -- -- 72
2020-10-05 10:00:00 22.4 22 Nordeste 28 Nordeste 0 -- -- 79
2020-10-05 09:00:00 22 19 Nordeste 25 Nordeste 0 -- -- 82
2020-10-05 08:00:00 21.7 19 Nordeste 26 Nordeste 0 -- -- 83
2020-10-05 07:00:00 21.7 13 Nordeste 18 Nordeste 0 -- -- 82
2020-10-05 06:00:00 21.6 15 Nordeste 22 Nordeste 0 -- -- 79
2020-10-05 05:00:00 21.7 19 Nordeste 27 Norte 0 -- -- 77
2020-10-05 04:00:00 21.7 18 Nordeste 23 Norte 0 -- -- 77
2020-10-05 03:00:00 21.9 16 Norte 25 Nordeste 0 -- -- 76
2020-10-05 02:00:00 22.1 14 Nordeste 21 Nordeste 0 -- -- 73
2020-10-05 01:00:00 22.1 17 Norte 23 Norte 0 -- -- 75
2020-10-05 00:00:00 22.1 19 Norte 30 Norte 0 -- -- 74
2020-10-04 23:00:00 22.1 25 Norte 37 Norte 0 -- -- 74
2020-10-04 22:00:00 22.3 17 Nordeste 21 Nordeste 0 -- -- 74
2020-10-04 21:00:00 22.3 15 Nordeste 36 Norte 0 -- -- 74
2020-10-04 20:00:00 22.6 29 Norte 42 Norte 0 -- -- 75
2020-10-04 19:00:00 23 26 Norte 37 Norte 0 -- -- 73
2020-10-04 18:00:00 23.4 29 Norte 40 Norte 0 -- -- 69
2020-10-04 17:00:00 23.3 32 Norte 43 Noroeste 0 -- -- 69
2020-10-04 16:00:00 23.3 36 Norte 44 Noroeste 0 -- -- 70
2020-10-04 15:00:00 23.9 27 Noroeste 34 Noroeste 0 -- -- 65
2020-10-04 14:00:00 24.1 24 Noroeste 33 Noroeste 0 -- -- 66
2020-10-04 13:00:00 24.5 9 Norte 21 Norte 0 -- -- 69
2020-10-04 12:00:00 23.4 14 Norte 21 Norte 0 -- -- 75
2020-10-04 11:00:00 22.9 9 Nordeste 14 Nordeste 0 -- -- 74
2020-10-04 10:00:00 22.7 12 Nordeste 26 Norte 0 -- -- 80
2020-10-04 09:00:00 21.7 14 Norte 30 Nordeste 0 -- -- 84
2020-10-04 08:00:00 21.6 22 Norte 33 Nordeste 0 -- -- 89
2020-10-04 07:00:00 21.3 23 Nordeste 30 Nordeste 0 -- -- 97
2020-10-04 06:00:00 21.3 17 Nordeste 25 Nordeste 0 -- -- 100
2020-10-04 05:00:00 21.4 15 Norte 28 Norte 0.2 -- -- 100
2020-10-04 04:00:00 21.7 16 Norte 26 Norte 0.2 -- -- 98
2020-10-04 03:00:00 21.4 16 Norte 27 Norte 0 -- -- 98
2020-10-04 02:00:00 21.4 15 Norte 27 Norte 0 -- -- 96
2020-10-04 01:00:00 21.6 20 Norte 32 Norte 0 -- -- 96
2020-10-04 00:00:00 21.3 18 Norte 31 Noroeste 0 -- -- 98
2020-10-03 23:00:00 21.5 22 Norte 29 Norte 0 -- -- 95
2020-10-03 22:00:00 22 17 Norte 30 Norte 0 -- -- 91
2020-10-03 21:00:00 22.4 23 Norte 39 Norte 0 -- -- 88
2020-10-03 20:00:00 22 19 Norte 37 Norte 0 -- -- 89
2020-10-03 19:00:00 23.3 24 Norte 39 Norte 0 -- -- 83
2020-10-03 18:00:00 24.1 29 Norte 41 Norte 0 -- -- 81
2020-10-03 17:00:00 23.7 31 Noroeste 42 Noroeste 0 -- -- 83
2020-10-03 16:00:00 23.8 31 Noroeste 46 Noroeste 0 -- -- 83
2020-10-03 15:00:00 23.7 30 Noroeste 47 Noroeste 0 -- -- 83
2020-10-03 14:00:00 23.8 33 Norte 49 Noroeste 0 -- -- 84
2020-10-03 13:00:00 23.8 32 Norte 42 Norte 0 -- -- 83
2020-10-03 12:00:00 23.6 28 Norte 46 Norte 0 -- -- 85
2020-10-03 11:00:00 23.4 30 Norte 46 Norte 0 -- -- 85
2020-10-03 10:00:00 22.4 27 Norte 40 Norte 0 -- -- 91
2020-10-03 09:00:00 22.3 19 Norte 46 Norte 0.2 -- -- 91
2020-10-03 08:00:00 22.2 18 Norte 32 Norte 0 -- -- 88
2020-10-03 07:00:00 22.2 23 Norte 36 Norte 0 -- -- 85
2020-10-03 06:00:00 22.1 28 Norte 41 Noroeste 0 -- -- 90
2020-10-03 05:00:00 22.5 24 Norte 34 Norte 0 -- -- 81
2020-10-03 04:00:00 22.3 21 Norte 33 Norte 0 -- -- 85
2020-10-03 03:00:00 22.4 21 Norte 33 Norte 0 -- -- 85
2020-10-03 02:00:00 22 35 Norte 54 Norte 0 -- -- 86
2020-10-03 01:00:00 22.6 22 Norte 36 Norte 0 -- -- 82
2020-10-03 00:00:00 22.7 28 Norte 41 Norte 0 -- -- 78
2020-10-02 23:00:00 22.6 30 Norte 50 Norte 0 -- -- 80
2020-10-02 22:00:00 22.7 36 Norte 52 Norte 0 -- -- 82
2020-10-02 21:00:00 22.6 26 Norte 41 Norte 0 -- -- 81
2020-10-02 20:00:00 22.7 29 Norte 41 Noroeste 0 -- -- 78
2020-10-02 19:00:00 23.2 29 Norte 45 Norte 0 -- -- 75
2020-10-02 18:00:00 23.6 32 Norte 42 Norte 0 -- -- 76
2020-10-02 17:00:00 24 32 Norte 53 Norte 0 -- -- 71
2020-10-02 16:00:00 23.9 33 Noroeste 49 Noroeste 0 -- -- 73
2020-10-02 15:00:00 24 31 Noroeste 43 Norte 0 -- -- 73
2020-10-02 14:00:00 23.5 30 Noroeste 40 Noroeste 0 -- -- 76
2020-10-02 13:00:00 23.7 29 Norte 39 Norte 0 -- -- 73
2020-10-02 12:00:00 23.2 30 Norte 45 Norte 0 -- -- 76
2020-10-02 11:00:00 23.8 23 Norte 35 Norte 0 -- -- 72
2020-10-02 10:00:00 23.5 21 Norte 30 Norte 0 -- -- 70
2020-10-02 09:00:00 22.6 20 Norte 28 Norte 0 -- -- 68
2020-10-02 08:00:00 22.2 19 Norte 38 Norte 0 -- -- 70
2020-10-02 07:00:00 22.2 22 Norte 41 Norte 0 -- -- 69
2020-10-02 06:00:00 22.2 21 Norte 32 Norte 0 -- -- 71
2020-10-02 05:00:00 22.2 27 Norte 40 Norte 0 -- -- 71
2020-10-02 04:00:00 22.5 31 Norte 48 Norte 0 -- -- 74
2020-10-02 03:00:00 22.4 23 Norte 38 Norte 0 -- -- 76
2020-10-02 02:00:00 22.7 18 Norte 29 Nordeste 0 -- -- 73
2020-10-02 01:00:00 22.7 26 Norte 38 Norte 0 -- -- 73
2020-10-02 00:00:00 22.8 19 Norte 28 Norte 0 -- -- 75
2020-10-01 23:00:00 22.8 17 Norte 33 Norte 0 -- -- 70
2020-10-01 22:00:00 22.8 27 Norte 41 Norte 0 -- -- 72
2020-10-01 21:00:00 22.8 30 Norte 42 Norte 0 -- -- 72
2020-10-01 20:00:00 23.1 30 Norte 42 Norte 0 -- -- 72
2020-10-01 19:00:00 23.3 29 Norte 41 Norte 0 -- -- 74
2020-10-01 18:00:00 23.9 31 Norte 55 Noroeste 0 -- -- 71
2020-10-01 17:00:00 23.9 31 Norte 45 Noroeste 0 -- -- 74
2020-10-01 16:00:00 23.8 14 Nordeste 30 Norte 0 -- -- 74
2020-10-01 15:00:00 23.7 11 Nordeste 27 Nordeste 0 -- -- 74
2020-10-01 14:00:00 23.9 19 Nordeste 26 Nordeste 0 -- -- 75
2020-10-01 13:00:00 24.7 7 Este 13 Norte 0 -- -- 69
2020-10-01 12:00:00 24 8 Nordeste 15 Nordeste 0 -- -- 72
2020-10-01 11:00:00 23.7 14 Nordeste 19 Norte 0 -- -- 73
2020-10-01 10:00:00 23.2 15 Norte 22 Norte 0 -- -- 77
2020-10-01 09:00:00 22 16 Norte 24 Norte 0 -- -- 81
2020-10-01 08:00:00 21.9 17 Norte 26 Norte 0 -- -- 80
2020-10-01 07:00:00 21.8 12 Norte 17 Norte 0 -- -- 80
2020-10-01 06:00:00 21.9 15 Norte 19 Norte 0 -- -- 78
2020-10-01 05:00:00 21.8 10 Nordeste 19 Norte 0 -- -- 78
2020-10-01 04:00:00 22.1 16 Norte 21 Norte 0 -- -- 79
2020-10-01 03:00:00 22.1 18 Norte 30 Norte 0 -- -- 78
2020-10-01 02:00:00 22.2 15 Norte 24 Norte 0 -- -- 78
2020-10-01 01:00:00 22.3 20 Norte 29 Norte 0 -- -- 77
2020-10-01 00:00:00 22.4 17 Norte 24 Norte 0 -- -- 77